Time;durP1;ratioP1;P1;durP2;ratioP2;P2;SDS_P1;SDS_P2;PMS_P1;PMS_P2;Temp;Humidity;BMP_temperature;BMP_pressure;BME280_temperature;BME280_humidity;BME280_pressure;Samples;Min_cycle;Max_cycle;Signal;HPM_P1;HPM_P2
2023/11/29 00:09:59;;;;;;;;;;;0.30;99.90;;;;;;21134317;27;19922;-87
2023/11/29 00:20:00;;;;;;;;;;;0.20;99.90;;;;;;21154015;27;19912;-86
2023/11/29 00:30:01;;;;;;;;;;;0.20;99.90;;;;;;21166611;27;20011;-86
2023/11/29 00:40:02;;;;;;;;;;;0.20;99.90;;;;;;21179905;28;19960;-88
2023/11/29 00:50:03;;;;;;;;;;;0.10;99.90;;;;;;21145824;28;19915;-88
2023/11/29 01:00:05;;;;;;;;;;;0.00;99.90;;;;;;21173560;28;19912;-86
2023/11/29 01:10:06;;;;;;;;;;;0.00;99.90;;;;;;21152846;28;19915;-88
2023/11/29 01:20:07;;;;;;;;;;;0.00;99.90;;;;;;21140940;28;19919;-87
2023/11/29 01:30:08;;;;;;;;;;;0.10;99.90;;;;;;21161210;28;19919;-89
2023/11/29 01:40:09;;;;;;;;;;;0.20;99.90;;;;;;21169821;28;19976;-89
2023/11/29 01:50:10;;;;;;;;;;;0.20;99.90;;;;;;21157567;27;20407;-88
2023/11/29 02:00:11;;;;;;;;;;;0.10;99.90;;;;;;21164074;27;19918;-88
2023/11/29 02:10:16;;;;;;;;;;;0.20;99.90;;;;;;21148049;27;19915;-87
2023/11/29 02:20:17;;;;;;;;;;;0.10;99.90;;;;;;21172819;27;20350;-87
2023/11/29 02:30:19;;;;;;;;;;;0.10;99.90;;;;;;21140663;27;19970;-87
2023/11/29 02:40:19;;;;;;;;;;;0.00;99.90;;;;;;21144174;27;19916;-87
2023/11/29 02:50:20;;;;;;;;;;;-0.20;99.90;;;;;;21177336;27;19923;-87
2023/11/29 03:00:21;;;;;;;;;;;-0.30;99.90;;;;;;21217221;27;20014;-86
2023/11/29 03:10:21;;;;;;;;;;;-0.30;99.90;;;;;;21206331;27;19915;-87
2023/11/29 03:20:22;;;;;;;;;;;-0.40;99.90;;;;;;21224442;27;19912;-86
2023/11/29 03:30:22;;;;;;;;;;;-0.50;99.90;;;;;;21210586;27;20294;-86
2023/11/29 03:40:23;;;;;;;;;;;-0.50;99.90;;;;;;21202309;27;19916;-86
2023/11/29 03:50:24;;;;;;;;;;;-0.60;99.90;;;;;;21202398;27;19920;-86
2023/11/29 04:00:24;;;;;;;;;;;-0.60;99.90;;;;;;21152241;27;19923;-85
2023/11/29 04:10:25;;;;;;;;;;;-0.70;99.90;;;;;;21152749;27;19921;-85
2023/11/29 04:20:26;;;;;;;;;;;-0.90;99.90;;;;;;21164124;27;19912;-86
2023/11/29 04:30:26;;;;;;;;;;;-0.90;99.90;;;;;;21181950;27;19915;-87
2023/11/29 04:40:29;;;;;;;;;;;-0.80;99.90;;;;;;21164835;27;19915;-87
2023/11/29 04:50:31;;;;;;;;;;;-0.70;99.90;;;;;;21156691;27;20655;-85
2023/11/29 05:00:31;;;;;;;;;;;-0.80;99.90;;;;;;21179051;28;20370;-86
2023/11/29 05:10:32;;;;;;;;;;;-0.70;99.90;;;;;;21158989;28;19923;-86
2023/11/29 05:20:33;;;;;;;;;;;-0.50;99.90;;;;;;21151109;27;20378;-85
2023/11/29 05:30:35;;;;;;;;;;;-0.60;99.90;;;;;;21195477;27;19921;-84
2023/11/29 05:40:36;;;;;;;;;;;-0.70;99.90;;;;;;21212498;27;19937;-84
2023/11/29 05:50:37;;;;;;;;;;;-0.60;99.90;;;;;;21198169;27;20339;-84
2023/11/29 06:00:37;;;;;;;;;;;-0.60;99.90;;;;;;21241423;27;19960;-84
2023/11/29 06:10:40;;;;;;;;;;;-0.60;99.90;;;;;;21210959;27;21453;-84
2023/11/29 06:20:40;;;;;;;;;;;-0.80;99.90;;;;;;21190220;27;19912;-83
2023/11/29 06:30:41;;;;;;;;;;;-1.00;99.90;;;;;;21169163;27;19915;-83
2023/11/29 06:40:42;;;;;;;;;;;-1.10;99.90;;;;;;21146383;27;19915;-86
2023/11/29 06:50:43;;;;;;;;;;;-1.00;99.90;;;;;;21188514;27;19915;-85
2023/11/29 07:00:46;;;;;;;;;;;-1.20;99.90;;;;;;21111075;28;19931;-86
2023/11/29 07:10:48;;;;;;;;;;;-1.40;99.90;;;;;;21126031;28;19915;-86
2023/11/29 07:20:53;;;;;;;;;;;-1.40;99.90;;;;;;21037994;28;20014;-85
2023/11/29 07:30:59;;;;;;;;;;;-1.30;99.90;;;;;;21022435;28;20394;-85
2023/11/29 07:41:03;;;;;;;;;;;-0.60;99.90;;;;;;21057851;28;19975;-86
2023/11/29 07:51:04;;;;;;;;;;;1.20;99.90;;;;;;21066898;28;20309;-87
2023/11/29 08:01:05;;;;;;;;;;;2.80;99.90;;;;;;21156508;27;19915;-85
2023/11/29 08:11:06;;;;;;;;;;;3.10;99.90;;;;;;21119739;27;19916;-86
2023/11/29 08:21:07;;;;;;;;;;;2.90;99.90;;;;;;21151010;27;19987;-85
2023/11/29 08:31:08;;;;;;;;;;;2.40;99.90;;;;;;21131494;27;20356;-86
2023/11/29 08:41:34;;;;;;;;;;;2.10;99.90;;;;;;21152475;28;19938;-87
2023/11/29 08:51:57;;;;;;;;;;;2.10;99.90;;;;;;21183888;27;19916;-87
2023/11/29 09:01:58;;;;;;;;;;;2.90;99.90;;;;;;21163596;27;19912;-85
2023/11/29 09:11:58;;;;;;;;;;;3.40;99.90;;;;;;21167073;27;19947;-85
2023/11/29 09:22:00;;;;;;;;;;;3.50;99.90;;;;;;21150276;27;19912;-87
2023/11/29 09:32:01;;;;;;;;;;;4.60;99.90;;;;;;21138705;27;20386;-87
2023/11/29 09:42:02;;;;;;;;;;;5.00;99.90;;;;;;21167494;27;19916;-86
2023/11/29 09:52:04;;;;;;;;;;;4.20;99.90;;;;;;21155562;27;19978;-86
2023/11/29 10:02:05;;;;;;;;;;;3.00;99.90;;;;;;21126861;27;19912;-88
2023/11/29 10:12:07;;;;;;;;;;;4.50;99.90;;;;;;21112635;27;19926;-86
2023/11/29 10:22:07;;;;;;;;;;;5.60;99.90;;;;;;21168912;27;20336;-85
2023/11/29 10:32:08;;;;;;;;;;;5.50;99.90;;;;;;21215028;27;19919;-85
2023/11/29 10:42:09;;;;;;;;;;;5.80;99.90;;;;;;21187503;27;20027;-85
2023/11/29 10:52:11;;;;;;;;;;;6.20;99.90;;;;;;21233403;27;19926;-85
2023/11/29 11:02:11;;;;;;;;;;;6.10;99.90;;;;;;21224369;27;19911;-86
2023/11/29 11:12:31;;;;;;;;;;;5.80;99.90;;;;;;21213153;27;19922;-85
2023/11/29 11:22:37;;;;;;;;;;;5.20;99.90;;;;;;21227105;27;19912;-85
2023/11/29 11:32:39;;;;;;;;;;;5.70;99.90;;;;;;21202457;27;19915;-86
2023/11/29 11:42:41;;;;;;;;;;;5.70;99.90;;;;;;21196960;27;19965;-85
2023/11/29 11:52:42;;;;;;;;;;;6.10;99.90;;;;;;21191542;27;20282;-87
2023/11/29 12:02:43;;;;;;;;;;;7.10;99.90;;;;;;21181393;27;20267;-86
2023/11/29 12:12:45;;;;;;;;;;;6.80;99.90;;;;;;21196884;27;19915;-86
2023/11/29 12:22:47;;;;;;;;;;;7.30;99.90;;;;;;21214818;27;19916;-86
2023/11/29 12:32:49;;;;;;;;;;;7.80;99.90;;;;;;21178876;27;19915;-86
2023/11/29 12:42:50;;;;;;;;;;;8.10;99.90;;;;;;21167092;28;19950;-85
2023/11/29 12:52:50;;;;;;;;;;;8.30;99.90;;;;;;21169875;28;19916;-88
2023/11/29 13:02:51;;;;;;;;;;;9.90;99.90;;;;;;21155928;28;19919;-87
2023/11/29 13:12:52;;;;;;;;;;;9.50;99.90;;;;;;21198588;28;19921;-88
2023/11/29 13:22:52;;;;;;;;;;;8.90;99.90;;;;;;21214220;28;19951;-87
2023/11/29 13:32:53;;;;;;;;;;;9.20;99.90;;;;;;21140902;28;19915;-85
2023/11/29 13:42:54;;;;;;;;;;;9.30;99.90;;;;;;21175478;27;19915;-87
2023/11/29 13:52:55;;;;;;;;;;;9.50;99.90;;;;;;21217342;27;19950;-86
2023/11/29 14:02:56;;;;;;;;;;;8.80;99.90;;;;;;21163161;27;19920;-86
2023/11/29 14:12:56;;;;;;;;;;;7.50;99.90;;;;;;21161058;27;19919;-86
2023/11/29 14:22:57;;;;;;;;;;;7.40;99.90;;;;;;21157265;27;19918;-85
2023/11/29 14:32:58;;;;;;;;;;;7.10;99.90;;;;;;21163505;27;19954;-85
2023/11/29 14:42:59;;;;;;;;;;;7.30;99.90;;;;;;21160021;27;19922;-87
2023/11/29 14:53:00;;;;;;;;;;;6.90;99.90;;;;;;21156987;27;19938;-85
2023/11/29 15:03:00;;;;;;;;;;;6.50;99.90;;;;;;21151166;27;19911;-86
2023/11/29 15:13:01;;;;;;;;;;;6.20;99.90;;;;;;21171245;27;19915;-84
2023/11/29 15:23:02;;;;;;;;;;;4.40;99.90;;;;;;21180201;27;19984;-84
2023/11/29 15:33:03;;;;;;;;;;;3.80;99.90;;;;;;21187507;27;19916;-86
2023/11/29 15:43:04;;;;;;;;;;;3.10;99.90;;;;;;21178719;27;19920;-84
2023/11/29 15:53:06;;;;;;;;;;;2.70;99.90;;;;;;21157123;27;19938;-86
2023/11/29 16:03:09;;;;;;;;;;;2.20;99.90;;;;;;21155663;27;20006;-83
2023/11/29 16:13:09;;;;;;;;;;;1.60;99.90;;;;;;21146117;27;19916;-82
2023/11/29 16:23:10;;;;;;;;;;;1.20;99.90;;;;;;21164444;27;19958;-83
2023/11/29 16:33:11;;;;;;;;;;;0.90;99.90;;;;;;21157210;27;19959;-83
2023/11/29 16:43:12;;;;;;;;;;;1.10;99.90;;;;;;21152373;27;19958;-85
2023/11/29 16:53:12;;;;;;;;;;;1.10;99.90;;;;;;21148542;28;19916;-83
2023/11/29 17:03:15;;;;;;;;;;;1.20;99.90;;;;;;21178070;28;19976;-84
2023/11/29 17:13:16;;;;;;;;;;;1.50;99.90;;;;;;21173592;27;19919;-84
2023/11/29 17:23:16;;;;;;;;;;;1.60;99.90;;;;;;21219013;27;19934;-86
2023/11/29 17:33:17;;;;;;;;;;;1.60;99.90;;;;;;21168212;27;19916;-84
2023/11/29 17:43:18;;;;;;;;;;;1.40;99.90;;;;;;21184269;27;20386;-85
2023/11/29 17:53:19;;;;;;;;;;;1.40;99.90;;;;;;21137266;27;19924;-84
2023/11/29 18:03:20;;;;;;;;;;;1.20;99.90;;;;;;21178621;27;19971;-84
2023/11/29 18:13:25;;;;;;;;;;;1.10;99.90;;;;;;21144103;27;19957;-84
2023/11/29 18:23:25;;;;;;;;;;;1.30;99.90;;;;;;21157904;27;19922;-84
2023/11/29 18:33:29;;;;;;;;;;;1.20;99.90;;;;;;21218066;27;20446;-84
2023/11/29 18:43:31;;;;;;;;;;;0.70;99.90;;;;;;21187186;27;19968;-85
2023/11/29 18:53:31;;;;;;;;;;;0.80;99.90;;;;;;21188183;27;19938;-84
2023/11/29 19:03:33;;;;;;;;;;;1.10;99.90;;;;;;21158977;27;19912;-84
2023/11/29 19:13:34;;;;;;;;;;;1.20;99.90;;;;;;21208438;27;19922;-82
2023/11/29 19:23:35;;;;;;;;;;;1.20;99.90;;;;;;21205949;27;20425;-82
2023/11/29 19:33:36;;;;;;;;;;;1.10;99.90;;;;;;21166232;28;19927;-82
2023/11/29 19:43:37;;;;;;;;;;;1.20;99.90;;;;;;21197456;27;19972;-81
2023/11/29 19:53:38;;;;;;;;;;;1.20;99.90;;;;;;21158790;27;19915;-83
2023/11/29 20:03:38;;;;;;;;;;;1.10;99.90;;;;;;21148481;28;19957;-82
2023/11/29 20:13:39;;;;;;;;;;;1.10;99.90;;;;;;21224325;27;20336;-82
2023/11/29 20:23:40;;;;;;;;;;;1.00;99.90;;;;;;21195935;27;19911;-82
2023/11/29 20:33:41;;;;;;;;;;;1.00;99.90;;;;;;21213380;27;19922;-83
2023/11/29 20:43:41;;;;;;;;;;;1.00;99.90;;;;;;21207422;27;20455;-83
2023/11/29 20:53:42;;;;;;;;;;;1.00;99.90;;;;;;21188731;27;19924;-82
2023/11/29 21:03:43;;;;;;;;;;;0.90;99.90;;;;;;21151422;27;19912;-82
2023/11/29 21:13:44;;;;;;;;;;;0.90;99.90;;;;;;21185781;27;19919;-83
2023/11/29 21:23:45;;;;;;;;;;;0.90;99.90;;;;;;21213646;27;20472;-82
2023/11/29 21:33:46;;;;;;;;;;;0.90;99.90;;;;;;21192385;27;20382;-83
2023/11/29 21:43:47;;;;;;;;;;;0.90;99.90;;;;;;21191736;27;19921;-83
2023/11/29 21:53:48;;;;;;;;;;;1.00;99.90;;;;;;21165381;27;19942;-83
2023/11/29 22:03:48;;;;;;;;;;;1.00;99.90;;;;;;21160586;27;19946;-83
2023/11/29 22:13:49;;;;;;;;;;;1.00;99.90;;;;;;21189345;27;19915;-83
2023/11/29 22:23:50;;;;;;;;;;;1.00;99.90;;;;;;21179959;27;20377;-83
2023/11/29 22:33:50;;;;;;;;;;;1.10;99.90;;;;;;21181793;27;19922;-83
2023/11/29 22:43:52;;;;;;;;;;;0.80;99.90;;;;;;21166144;27;19915;-83
2023/11/29 22:53:52;;;;;;;;;;;0.70;99.90;;;;;;21124830;27;20325;-88
2023/11/29 23:03:53;;;;;;;;;;;0.70;99.90;;;;;;21143795;27;20278;-83
2023/11/29 23:13:54;;;;;;;;;;;0.70;99.90;;;;;;21137604;28;19923;-83
2023/11/29 23:23:55;;;;;;;;;;;0.60;99.90;;;;;;21120678;28;20368;-85
2023/11/29 23:33:56;;;;;;;;;;;0.60;99.90;;;;;;21123287;28;19923;-83
2023/11/29 23:43:57;;;;;;;;;;;0.60;99.90;;;;;;21138756;27;19994;-84
2023/11/29 23:53:58;;;;;;;;;;;0.70;99.90;;;;;;21126525;28;19931;-85
